Time;durP1;ratioP1;P1;durP2;ratioP2;P2;SDS_P1;SDS_P2;PMS_P1;PMS_P2;Temp;Humidity;BMP_temperature;BMP_pressure;BME280_temperature;BME280_humidity;BME280_pressure;Samples;Min_cycle;Max_cycle;Signal;HPM_P1;HPM_P2
2022/07/07 00:01:26;;;;;;;16.10;9.95;;;;;;;;;;5012035;28;20057;-62
2022/07/07 00:03:53;;;;;;;18.55;10.30;;;;;;;;;;5012166;28;20052;-62
2022/07/07 00:06:19;;;;;;;16.45;9.20;;;;;;;;;;5010714;28;20053;-59
2022/07/07 00:08:47;;;;;;;17.48;9.80;;;;;;;;;;5010807;28;20478;-61
2022/07/07 00:11:14;;;;;;;17.63;9.87;;;;;;;;;;5012130;28;20375;-59
2022/07/07 00:13:40;;;;;;;17.67;10.80;;;;;;;;;;5011121;28;20022;-60
2022/07/07 00:16:06;;;;;;;17.95;10.93;;;;;;;;;;5012316;28;20470;-61
2022/07/07 00:18:32;;;;;;;19.33;12.57;;;;;;;;;;5012148;28;20033;-60
2022/07/07 00:20:58;;;;;;;19.77;14.23;;;;;;;;;;5010949;28;20072;-59
2022/07/07 00:23:24;;;;;;;20.27;15.32;;;;;;;;;;5011963;28;20034;-63
2022/07/07 00:25:50;;;;;;;19.88;15.25;;;;;;;;;;5012316;28;20030;-60
2022/07/07 00:28:16;;;;;;;21.45;15.10;;;;;;;;;;5010282;28;20449;-62
2022/07/07 00:30:42;;;;;;;19.92;13.98;;;;;;;;;;5012091;28;20064;-62
2022/07/07 00:33:09;;;;;;;20.10;13.52;;;;;;;;;;5012197;28;20097;-61
2022/07/07 00:35:35;;;;;;;20.45;14.10;;;;;;;;;;5011941;28;20025;-62
2022/07/07 00:38:01;;;;;;;23.27;13.95;;;;;;;;;;5011807;28;20157;-61
2022/07/07 00:40:27;;;;;;;18.38;13.27;;;;;;;;;;5012083;28;20104;-61
2022/07/07 00:42:53;;;;;;;19.75;14.02;;;;;;;;;;5012214;28;20030;-61
2022/07/07 00:45:19;;;;;;;21.85;12.38;;;;;;;;;;5011942;28;20022;-60
2022/07/07 00:47:45;;;;;;;19.17;12.40;;;;;;;;;;5011573;28;20061;-60
2022/07/07 00:50:11;;;;;;;21.67;12.82;;;;;;;;;;5011759;28;20022;-57
2022/07/07 00:52:38;;;;;;;21.35;12.20;;;;;;;;;;5011721;28;20018;-61
2022/07/07 00:55:04;;;;;;;19.63;12.00;;;;;;;;;;5015517;28;20026;-58
2022/07/07 00:57:31;;;;;;;19.75;12.52;;;;;;;;;;5015208;28;20026;-60
2022/07/07 00:59:58;;;;;;;19.25;13.02;;;;;;;;;;5015273;28;20097;-59
2022/07/07 01:02:24;;;;;;;22.58;13.02;;;;;;;;;;5015396;28;20449;-62
2022/07/07 01:04:50;;;;;;;20.63;11.85;;;;;;;;;;5015430;28;20034;-61
2022/07/07 01:07:17;;;;;;;19.30;11.68;;;;;;;;;;5015061;28;20026;-61
2022/07/07 01:09:43;;;;;;;19.23;12.27;;;;;;;;;;5015240;28;20049;-63
2022/07/07 01:12:09;;;;;;;19.50;12.07;;;;;;;;;;5015467;28;20521;-62
2022/07/07 01:14:35;;;;;;;20.17;12.15;;;;;;;;;;5013852;28;20026;-60
2022/07/07 01:17:01;;;;;;;18.92;12.35;;;;;;;;;;5015493;28;20029;-63
2022/07/07 01:19:28;;;;;;;20.65;13.18;;;;;;;;;;5015041;28;20022;-63
2022/07/07 01:22:01;;;;;;;20.65;12.85;;;;;;;;;;5015326;28;20033;-62
2022/07/07 01:24:29;;;;;;;19.73;12.32;;;;;;;;;;5015523;28;20033;-61
2022/07/07 01:27:10;;;;;;;20.45;12.50;;;;;;;;;;5015216;28;20101;-59
2022/07/07 01:29:40;;;;;;;18.90;13.13;;;;;;;;;;5015153;28;20401;-62
2022/07/07 01:32:09;;;;;;;22.45;12.38;;;;;;;;;;5013768;28;20033;-61
2022/07/07 01:34:36;;;;;;;20.08;12.18;;;;;;;;;;5015287;28;20021;-60
2022/07/07 01:37:03;;;;;;;18.80;12.43;;;;;;;;;;5015078;28;20552;-62
2022/07/07 01:39:29;;;;;;;21.38;11.90;;;;;;;;;;5013421;28;20030;-60
2022/07/07 01:41:55;;;;;;;23.30;12.27;;;;;;;;;;5014643;28;20030;-61
2022/07/07 01:44:21;;;;;;;19.40;11.60;;;;;;;;;;5013409;28;20025;-62
2022/07/07 01:46:47;;;;;;;20.20;12.45;;;;;;;;;;5013796;28;20040;-63
2022/07/07 01:49:13;;;;;;;19.10;12.18;;;;;;;;;;5013123;28;20595;-59
2022/07/07 01:51:39;;;;;;;17.73;11.15;;;;;;;;;;5014511;28;20053;-62
2022/07/07 01:54:05;;;;;;;17.92;11.85;;;;;;;;;;5014360;28;20037;-62
2022/07/07 01:56:31;;;;;;;19.73;11.50;;;;;;;;;;5013304;28;20080;-63
2022/07/07 01:58:57;;;;;;;22.52;11.95;;;;;;;;;;5014111;28;20030;-61
2022/07/07 02:01:23;;;;;;;18.73;11.40;;;;;;;;;;5014125;28;20033;-61
2022/07/07 02:03:49;;;;;;;21.70;13.07;;;;;;;;;;5014118;28;20084;-62
2022/07/07 02:06:15;;;;;;;21.45;14.15;;;;;;;;;;5014529;28;20061;-61
2022/07/07 02:08:41;;;;;;;18.67;12.55;;;;;;;;;;5012739;28;20033;-57
2022/07/07 02:11:14;;;;;;;19.65;12.98;;;;;;;;;;5012785;28;20107;-60
2022/07/07 02:13:43;;;;;;;19.92;13.63;;;;;;;;;;5014343;28;20022;-57
2022/07/07 02:16:10;;;;;;;19.75;13.43;;;;;;;;;;5014229;28;20032;-60
2022/07/07 02:18:36;;;;;;;19.70;13.30;;;;;;;;;;5012639;28;20041;-61
2022/07/07 02:21:03;;;;;;;17.17;12.52;;;;;;;;;;5014074;28;20112;-61
2022/07/07 02:23:29;;;;;;;19.13;13.43;;;;;;;;;;5014101;28;20037;-62
2022/07/07 02:25:55;;;;;;;18.73;12.63;;;;;;;;;;5013967;28;20482;-62
2022/07/07 02:28:23;;;;;;;22.42;13.10;;;;;;;;;;5013549;28;20053;-62
2022/07/07 02:30:49;;;;;;;18.17;13.40;;;;;;;;;;5013969;28;20080;-58
2022/07/07 02:33:15;;;;;;;19.50;12.60;;;;;;;;;;5013658;28;20029;-60
2022/07/07 02:35:41;;;;;;;17.38;11.80;;;;;;;;;;5012567;28;20018;-61
2022/07/07 02:38:07;;;;;;;19.35;13.82;;;;;;;;;;5013613;28;20026;-60
2022/07/07 02:40:33;;;;;;;20.02;12.65;;;;;;;;;;5013785;28;20048;-61
2022/07/07 02:42:59;;;;;;;20.80;13.60;;;;;;;;;;5013682;28;20022;-60
2022/07/07 02:45:25;;;;;;;17.85;12.05;;;;;;;;;;5013918;28;20034;-61
2022/07/07 02:47:52;;;;;;;17.48;12.70;;;;;;;;;;5013369;28;20061;-63
2022/07/07 02:50:18;;;;;;;17.80;11.88;;;;;;;;;;5013463;28;20022;-63
2022/07/07 02:52:44;;;;;;;20.50;12.23;;;;;;;;;;5012063;28;20026;-61
2022/07/07 02:55:10;;;;;;;18.42;12.32;;;;;;;;;;5013287;28;20026;-62
2022/07/07 02:57:36;;;;;;;18.42;12.07;;;;;;;;;;5011858;28;20030;-62
2022/07/07 03:00:06;;;;;;;18.00;12.00;;;;;;;;;;5013964;28;20160;-61
2022/07/07 03:02:32;;;;;;;18.75;12.00;;;;;;;;;;5012193;28;20041;-63
2022/07/07 03:04:58;;;;;;;18.27;11.68;;;;;;;;;;5012353;28;20050;-61
2022/07/07 03:07:24;;;;;;;16.95;11.68;;;;;;;;;;5011924;28;20466;-60
2022/07/07 03:09:50;;;;;;;19.83;13.00;;;;;;;;;;5013454;28;20026;-61
2022/07/07 03:12:16;;;;;;;18.92;12.13;;;;;;;;;;5013359;28;20072;-60
2022/07/07 03:14:42;;;;;;;19.35;12.60;;;;;;;;;;5013357;28;20022;-60
2022/07/07 03:17:08;;;;;;;21.80;12.85;;;;;;;;;;5012951;28;20105;-57
2022/07/07 03:19:34;;;;;;;18.05;12.50;;;;;;;;;;5013357;28;20494;-61
2022/07/07 03:22:01;;;;;;;19.95;13.18;;;;;;;;;;5013501;28;20026;-63
2022/07/07 03:24:29;;;;;;;20.88;13.98;;;;;;;;;;5022491;28;20071;-62
2022/07/07 03:26:55;;;;;;;19.05;13.30;;;;;;;;;;5013203;28;20030;-61
2022/07/07 03:29:21;;;;;;;20.40;14.18;;;;;;;;;;5012870;28;20124;-62
2022/07/07 03:31:47;;;;;;;20.05;14.32;;;;;;;;;;5012820;28;20021;-62
2022/07/07 03:34:13;;;;;;;20.92;15.55;;;;;;;;;;5012782;28;20050;-61
2022/07/07 03:36:39;;;;;;;19.73;14.48;;;;;;;;;;5012870;28;20030;-59
2022/07/07 03:39:05;;;;;;;21.40;15.32;;;;;;;;;;5012499;28;20092;-60
2022/07/07 03:41:31;;;;;;;22.88;14.52;;;;;;;;;;5012451;28;20033;-61
2022/07/07 03:43:57;;;;;;;24.63;15.45;;;;;;;;;;4995157;28;20049;-60
2022/07/07 03:46:23;;;;;;;23.05;15.88;;;;;;;;;;5012511;28;20394;-58
2022/07/07 03:48:49;;;;;;;22.15;14.98;;;;;;;;;;5012376;28;20029;-62
2022/07/07 03:51:15;;;;;;;23.70;15.48;;;;;;;;;;4994970;28;20463;-62
2022/07/07 03:53:41;;;;;;;21.75;15.20;;;;;;;;;;5012540;28;20033;-60
2022/07/07 03:56:07;;;;;;;22.15;15.20;;;;;;;;;;5012588;28;20026;-63
2022/07/07 03:58:33;;;;;;;23.15;15.32;;;;;;;;;;4994525;28;20034;-61
2022/07/07 04:01:02;;;;;;;22.48;15.82;;;;;;;;;;5012412;28;20022;-61
2022/07/07 04:03:28;;;;;;;23.92;16.00;;;;;;;;;;5012637;28;20503;-59
2022/07/07 04:05:54;;;;;;;24.35;16.48;;;;;;;;;;5012627;28;20104;-58
2022/07/07 04:08:20;;;;;;;22.58;15.05;;;;;;;;;;5012105;28;20099;-61
2022/07/07 04:10:46;;;;;;;21.50;15.98;;;;;;;;;;4994181;28;20080;-62
2022/07/07 04:13:12;;;;;;;24.38;16.48;;;;;;;;;;5012480;28;20026;-60
2022/07/07 04:15:38;;;;;;;25.08;16.00;;;;;;;;;;5012341;28;20026;-60
2022/07/07 04:18:04;;;;;;;21.65;15.43;;;;;;;;;;5012066;28;20030;-60
2022/07/07 04:20:30;;;;;;;23.85;15.50;;;;;;;;;;5012230;28;20101;-61
2022/07/07 04:22:57;;;;;;;24.63;17.13;;;;;;;;;;5012724;28;20090;-63
2022/07/07 04:25:23;;;;;;;24.60;17.10;;;;;;;;;;5012868;28;20030;-62
2022/07/07 04:27:49;;;;;;;24.55;18.33;;;;;;;;;;5012663;28;20025;-58
2022/07/07 04:30:15;;;;;;;28.05;25.13;;;;;;;;;;4998879;28;20536;-61
2022/07/07 04:32:41;;;;;;;29.73;26.88;;;;;;;;;;4999087;28;20056;-60
2022/07/07 04:35:08;;;;;;;38.20;34.83;;;;;;;;;;4999101;28;20026;-60
2022/07/07 04:37:34;;;;;;;39.83;35.95;;;;;;;;;;5016376;28;20026;-60
2022/07/07 04:40:00;;;;;;;38.60;35.22;;;;;;;;;;5018204;28;20071;-61
2022/07/07 04:42:26;;;;;;;39.65;36.13;;;;;;;;;;5017959;28;20117;-61
2022/07/07 04:44:52;;;;;;;39.90;36.30;;;;;;;;;;5018295;28;20073;-62
2022/07/07 04:47:18;;;;;;;41.88;38.30;;;;;;;;;;5017945;28;20022;-58
2022/07/07 04:49:44;;;;;;;39.72;36.13;;;;;;;;;;5017621;28;20374;-60
2022/07/07 04:52:10;;;;;;;36.00;32.72;;;;;;;;;;5000449;28;20029;-60
2022/07/07 04:54:36;;;;;;;36.35;32.90;;;;;;;;;;5020051;28;20080;-60
2022/07/07 04:57:02;;;;;;;33.22;30.30;;;;;;;;;;5020278;28;20026;-59
2022/07/07 04:59:28;;;;;;;32.75;29.75;;;;;;;;;;5019785;28;20385;-57
2022/07/07 05:01:54;;;;;;;30.55;27.75;;;;;;;;;;5018546;28;20069;-58
2022/07/07 05:04:20;;;;;;;29.38;26.58;;;;;;;;;;5001262;28;20025;-58
2022/07/07 05:06:46;;;;;;;28.70;26.10;;;;;;;;;;5019312;28;20033;-61
2022/07/07 05:09:12;;;;;;;27.45;25.05;;;;;;;;;;5001715;28;20053;-62
2022/07/07 05:11:38;;;;;;;28.13;25.55;;;;;;;;;;5019707;28;20033;-60
2022/07/07 05:14:04;;;;;;;26.30;23.98;;;;;;;;;;5017173;28;20030;-60
2022/07/07 05:16:30;;;;;;;25.15;22.70;;;;;;;;;;5017662;28;20033;-61
2022/07/07 05:18:56;;;;;;;24.65;22.35;;;;;;;;;;5016948;28;20113;-61
2022/07/07 05:21:22;;;;;;;24.95;22.60;;;;;;;;;;4999832;28;20022;-58
2022/07/07 05:23:48;;;;;;;24.50;22.20;;;;;;;;;;5021478;28;20022;-62
2022/07/07 05:26:15;;;;;;;24.45;22.02;;;;;;;;;;5023594;28;20036;-61
2022/07/07 05:28:44;;;;;;;23.20;21.10;;;;;;;;;;5023811;28;20117;-59
2022/07/07 05:31:10;;;;;;;23.38;21.17;;;;;;;;;;5024571;28;20026;-62
2022/07/07 05:33:37;;;;;;;22.33;20.27;;;;;;;;;;5022873;28;20022;-61
2022/07/07 05:36:03;;;;;;;35.25;20.83;;;;;;;;;;5019851;28;20593;-62
2022/07/07 05:38:30;;;;;;;21.83;19.83;;;;;;;;;;5019470;28;20026;-62
2022/07/07 05:40:56;;;;;;;21.75;19.73;;;;;;;;;;5018138;28;20498;-60
2022/07/07 05:43:22;;;;;;;21.77;19.60;;;;;;;;;;5019222;28;20558;-58
2022/07/07 05:45:48;;;;;;;21.88;19.77;;;;;;;;;;5019671;28;20030;-60
2022/07/07 05:48:14;;;;;;;22.25;20.15;;;;;;;;;;5019693;28;20061;-59
2022/07/07 05:50:40;;;;;;;22.65;20.65;;;;;;;;;;5019583;28;20451;-58
2022/07/07 05:53:06;;;;;;;23.05;20.95;;;;;;;;;;5020042;28;20026;-60
2022/07/07 05:55:32;;;;;;;23.63;21.38;;;;;;;;;;5020213;28;20029;-60
2022/07/07 05:57:58;;;;;;;24.45;22.05;;;;;;;;;;5021057;28;20037;-62
2022/07/07 06:00:24;;;;;;;23.23;21.13;;;;;;;;;;5021426;28;20117;-60
2022/07/07 06:02:50;;;;;;;23.80;21.40;;;;;;;;;;5019572;28;20030;-61
2022/07/07 06:05:17;;;;;;;23.95;21.55;;;;;;;;;;5019212;28;20038;-61
2022/07/07 06:07:43;;;;;;;24.88;22.58;;;;;;;;;;5018802;28;20441;-63
2022/07/07 06:10:15;;;;;;;23.58;21.42;;;;;;;;;;5002798;28;20030;-61
2022/07/07 06:12:42;;;;;;;22.55;20.33;;;;;;;;;;5018421;28;20029;-61
2022/07/07 06:15:09;;;;;;;24.30;22.00;;;;;;;;;;5017948;28;20474;-60
2022/07/07 06:17:35;;;;;;;22.40;20.20;;;;;;;;;;5018436;28;20037;-61
2022/07/07 06:20:02;;;;;;;22.27;20.05;;;;;;;;;;5018735;28;20025;-61
2022/07/07 06:22:32;;;;;;;23.33;21.13;;;;;;;;;;5019840;28;20030;-61
2022/07/07 06:24:58;;;;;;;23.17;21.15;;;;;;;;;;5018617;28;20029;-60
2022/07/07 06:27:26;;;;;;;22.20;20.13;;;;;;;;;;5017588;28;20022;-61
2022/07/07 06:29:55;;;;;;;21.48;19.33;;;;;;;;;;5017857;28;20028;-60
2022/07/07 06:32:21;;;;;;;21.10;19.10;;;;;;;;;;4999911;28;20036;-59
2022/07/07 06:34:47;;;;;;;20.80;18.88;;;;;;;;;;5017936;28;20076;-60
2022/07/07 06:37:13;;;;;;;21.58;19.40;;;;;;;;;;5015119;28;20025;-58
2022/07/07 06:39:39;;;;;;;21.65;19.65;;;;;;;;;;5012994;28;20382;-59
2022/07/07 06:42:05;;;;;;;22.10;20.00;;;;;;;;;;5013423;28;20041;-61
2022/07/07 06:44:32;;;;;;;22.42;20.50;;;;;;;;;;4995664;28;20033;-59
2022/07/07 06:46:58;;;;;;;22.55;20.42;;;;;;;;;;5014046;28;20021;-60
2022/07/07 06:49:25;;;;;;;22.65;20.63;;;;;;;;;;5013069;28;20036;-62
2022/07/07 06:51:51;;;;;;;21.58;19.58;;;;;;;;;;5012729;28;20029;-55
2022/07/07 06:54:17;;;;;;;21.00;19.00;;;;;;;;;;5013565;28;20017;-61
2022/07/07 06:56:43;;;;;;;22.83;20.70;;;;;;;;;;5013513;28;20096;-59
2022/07/07 06:59:09;;;;;;;25.77;23.67;;;;;;;;;;5013413;28;20560;-57
2022/07/07 07:01:35;;;;;;;23.90;21.88;;;;;;;;;;5013400;28;20069;-60
2022/07/07 07:04:01;;;;;;;23.45;21.45;;;;;;;;;;5013425;28;20096;-57
2022/07/07 07:06:30;;;;;;;22.67;20.55;;;;;;;;;;5014250;28;20048;-60
2022/07/07 07:08:56;;;;;;;22.23;20.33;;;;;;;;;;5013419;28;20497;-60
2022/07/07 07:11:23;;;;;;;28.40;25.95;;;;;;;;;;5013276;28;20041;-60
2022/07/07 07:13:49;;;;;;;25.05;22.85;;;;;;;;;;5013564;28;20038;-58
2022/07/07 07:16:16;;;;;;;25.88;23.77;;;;;;;;;;5013702;28;20084;-60
2022/07/07 07:18:42;;;;;;;25.15;22.63;;;;;;;;;;5013760;28;20105;-57
2022/07/07 07:21:08;;;;;;;24.88;22.77;;;;;;;;;;5013430;28;20026;-60
2022/07/07 07:23:34;;;;;;;25.25;23.15;;;;;;;;;;5013328;28;20065;-59
2022/07/07 07:26:00;;;;;;;23.52;21.15;;;;;;;;;;5013120;28;20054;-59
2022/07/07 07:28:26;;;;;;;23.55;21.42;;;;;;;;;;5012440;28;20362;-59
2022/07/07 07:30:52;;;;;;;22.98;20.98;;;;;;;;;;5012740;28;20030;-58
2022/07/07 07:33:18;;;;;;;23.52;21.23;;;;;;;;;;5013006;28;20030;-57
2022/07/07 07:35:44;;;;;;;23.05;20.65;;;;;;;;;;5012782;28;20061;-59
2022/07/07 07:38:10;;;;;;;23.73;21.33;;;;;;;;;;5012275;28;20061;-58
2022/07/07 07:40:36;;;;;;;21.80;19.63;;;;;;;;;;5012479;28;20061;-61
2022/07/07 07:43:02;;;;;;;21.23;19.08;;;;;;;;;;5012765;28;20034;-61
2022/07/07 07:45:28;;;;;;;19.40;17.50;;;;;;;;;;5012615;28;20509;-60
2022/07/07 07:47:56;;;;;;;20.08;17.98;;;;;;;;;;5012480;28;20493;-62
2022/07/07 07:50:22;;;;;;;19.63;17.40;;;;;;;;;;4994842;28;20130;-61
2022/07/07 07:52:49;;;;;;;19.23;17.25;;;;;;;;;;5012462;28;20189;-60
2022/07/07 07:55:17;;;;;;;18.48;16.58;;;;;;;;;;5012700;28;20137;-61
2022/07/07 07:57:43;;;;;;;22.00;16.53;;;;;;;;;;5012069;28;20032;-60
2022/07/07 08:00:10;;;;;;;18.05;14.73;;;;;;;;;;5012555;28;20028;-59
2022/07/07 08:02:36;;;;;;;19.10;13.70;;;;;;;;;;5012323;28;20033;-57
2022/07/07 08:05:03;;;;;;;17.20;12.52;;;;;;;;;;5012649;28;20030;-63
2022/07/07 08:07:29;;;;;;;18.75;12.00;;;;;;;;;;5012314;28;20053;-62
2022/07/07 08:09:55;;;;;;;20.08;12.00;;;;;;;;;;4994626;28;20026;-59
2022/07/07 08:12:21;;;;;;;18.65;11.35;;;;;;;;;;5011767;28;20434;-59
2022/07/07 08:14:47;;;;;;;16.05;11.10;;;;;;;;;;5012574;28;20072;-62
2022/07/07 08:17:13;;;;;;;16.45;11.65;;;;;;;;;;5012051;28;20152;-63
2022/07/07 08:19:39;;;;;;;17.75;11.10;;;;;;;;;;5012026;28;20589;-63
2022/07/07 08:22:05;;;;;;;27.15;10.90;;;;;;;;;;5017362;28;20113;-62
2022/07/07 08:24:31;;;;;;;17.27;9.43;;;;;;;;;;5022246;28;20089;-61
2022/07/07 08:26:57;;;;;;;14.75;9.10;;;;;;;;;;5031016;28;20022;-61
2022/07/07 08:29:23;;;;;;;14.43;8.57;;;;;;;;;;5012239;28;20025;-59
2022/07/07 08:31:49;;;;;;;16.40;9.25;;;;;;;;;;5031421;28;20067;-56
2022/07/07 08:34:15;;;;;;;15.75;9.00;;;;;;;;;;5051599;28;20388;-59
2022/07/07 08:36:41;;;;;;;15.38;9.02;;;;;;;;;;5051535;28;20053;-59
2022/07/07 08:39:07;;;;;;;18.25;9.30;;;;;;;;;;5051465;28;20404;-60
2022/07/07 08:41:33;;;;;;;15.98;9.13;;;;;;;;;;5051191;28;20064;-61
2022/07/07 08:43:59;;;;;;;19.38;10.18;;;;;;;;;;5051475;28;20025;-60
2022/07/07 08:46:25;;;;;;;14.77;8.90;;;;;;;;;;5051470;28;20432;-61
2022/07/07 08:48:53;;;;;;;16.35;8.80;;;;;;;;;;5033368;28;20021;-68
2022/07/07 08:51:21;;;;;;;16.92;8.70;;;;;;;;;;5025126;28;20018;-60
2022/07/07 08:53:47;;;;;;;15.65;9.13;;;;;;;;;;5020965;28;20022;-60
2022/07/07 08:56:14;;;;;;;14.57;8.20;;;;;;;;;;5021873;28;20108;-60
2022/07/07 08:58:41;;;;;;;17.13;8.50;;;;;;;;;;5020842;28;20435;-55
2022/07/07 09:01:07;;;;;;;15.27;8.32;;;;;;;;;;5020210;28;20033;-59
2022/07/07 09:03:34;;;;;;;15.57;8.70;;;;;;;;;;5021999;28;20278;-60
2022/07/07 09:06:00;;;;;;;16.42;8.77;;;;;;;;;;5008959;28;20029;-61
2022/07/07 09:08:26;;;;;;;19.10;8.45;;;;;;;;;;5022301;28;20033;-59
2022/07/07 09:10:52;;;;;;;15.68;8.70;;;;;;;;;;5031265;28;20087;-59
2022/07/07 09:13:25;;;;;;;16.23;8.60;;;;;;;;;;5031346;28;20066;-59
2022/07/07 09:15:51;;;;;;;18.90;9.05;;;;;;;;;;5034610;28;20026;-58
2022/07/07 09:18:37;;;;;;;15.20;8.25;;;;;;;;;;5034582;28;20622;-57
2022/07/07 09:21:04;;;;;;;16.52;8.50;;;;;;;;;;5034778;28;20033;-60
2022/07/07 09:23:31;;;;;;;16.77;8.75;;;;;;;;;;5034978;28;20018;-63
2022/07/07 09:25:57;;;;;;;17.73;8.65;;;;;;;;;;5034843;28;20030;-59
2022/07/07 09:28:25;;;;;;;15.98;8.57;;;;;;;;;;5034295;28;20083;-62
2022/07/07 09:30:51;;;;;;;14.73;8.13;;;;;;;;;;5034408;28;20056;-62
2022/07/07 09:33:19;;;;;;;14.40;8.25;;;;;;;;;;5034406;28;20075;-60
2022/07/07 09:38:32;;;;;;;15.60;8.57;;;;;;;;;;5034189;28;20500;-63
2022/07/07 09:41:13;;;;;;;18.20;9.00;;;;;;;;;;5034407;28;20028;-61
2022/07/07 09:43:39;;;;;;;16.92;8.77;;;;;;;;;;5034099;28;20021;-59
2022/07/07 09:46:17;;;;;;;16.25;8.02;;;;;;;;;;5034131;28;20044;-61
2022/07/07 09:48:44;;;;;;;16.27;7.90;;;;;;;;;;5034518;28;20040;-60
2022/07/07 09:51:15;;;;;;;13.70;7.88;;;;;;;;;;5034378;28;20049;-60
2022/07/07 09:54:00;;;;;;;15.73;7.72;;;;;;;;;;5034491;28;20025;-61
2022/07/07 09:56:27;;;;;;;15.27;7.82;;;;;;;;;;5034345;28;20017;-62
2022/07/07 09:58:53;;;;;;;16.20;7.70;;;;;;;;;;5033610;28;20036;-58
2022/07/07 10:01:24;;;;;;;13.88;7.60;;;;;;;;;;5032632;28;20021;-61
2022/07/07 10:03:52;;;;;;;13.93;7.60;;;;;;;;;;5034112;28;20404;-62
2022/07/07 10:06:18;;;;;;;15.38;8.20;;;;;;;;;;5033946;28;20025;-58
2022/07/07 10:08:45;;;;;;;13.85;7.70;;;;;;;;;;5033495;28;20029;-53
2022/07/07 10:11:13;;;;;;;13.27;7.10;;;;;;;;;;5033262;28;20117;-61
2022/07/07 10:13:42;;;;;;;14.55;7.57;;;;;;;;;;5033482;28;20030;-59
2022/07/07 10:16:09;;;;;;;13.88;7.72;;;;;;;;;;5033878;28;20470;-60
2022/07/07 10:18:35;;;;;;;13.45;7.20;;;;;;;;;;5033562;28;20021;-59
2022/07/07 10:21:01;;;;;;;16.08;7.82;;;;;;;;;;5033375;28;20032;-52
2022/07/07 10:23:27;;;;;;;14.82;7.57;;;;;;;;;;5033865;28;20021;-59
2022/07/07 10:26:04;;;;;;;14.63;7.75;;;;;;;;;;5032392;28;20061;-60
2022/07/07 10:28:48;;;;;;;14.65;7.68;;;;;;;;;;5032946;28;20049;-61
2022/07/07 10:31:33;;;;;;;13.43;7.20;;;;;;;;;;5033271;28;20079;-54
2022/07/07 10:34:09;;;;;;;14.20;7.22;;;;;;;;;;5033423;28;20049;-54
2022/07/07 10:36:47;;;;;;;12.70;6.90;;;;;;;;;;5033349;28;20087;-61
2022/07/07 10:39:14;;;;;;;12.90;7.03;;;;;;;;;;5033023;28;20048;-59
2022/07/07 10:41:51;;;;;;;14.18;7.18;;;;;;;;;;5033272;28;20087;-57
2022/07/07 10:44:19;;;;;;;13.80;7.05;;;;;;;;;;5033201;28;20021;-60
2022/07/07 10:46:57;;;;;;;13.25;7.07;;;;;;;;;;5015448;28;20021;-62
2022/07/07 10:49:37;;;;;;;12.60;7.07;;;;;;;;;;5033045;28;20464;-60
2022/07/07 10:52:05;;;;;;;13.70;7.03;;;;;;;;;;5015175;28;20017;-60
2022/07/07 10:54:38;;;;;;;14.32;7.10;;;;;;;;;;5015602;28;20124;-56
2022/07/07 10:57:07;;;;;;;14.00;7.22;;;;;;;;;;5032909;28;20069;-62
2022/07/07 10:59:52;;;;;;;14.13;7.60;;;;;;;;;;5033027;28;20037;-59
2022/07/07 11:02:29;;;;;;;14.05;7.70;;;;;;;;;;5015481;28;20022;-56
2022/07/07 11:04:55;;;;;;;17.10;7.80;;;;;;;;;;5015457;28;20025;-62
2022/07/07 11:07:23;;;;;;;14.05;7.43;;;;;;;;;;5046727;28;20041;-61
2022/07/07 11:10:04;;;;;;;15.13;7.40;;;;;;;;;;5054021;28;20532;-61
2022/07/07 11:12:34;;;;;;;15.48;7.80;;;;;;;;;;5054991;28;20036;-60
2022/07/07 11:15:16;;;;;;;13.38;7.40;;;;;;;;;;5054287;28;20084;-60
2022/07/07 11:17:42;;;;;;;15.00;7.72;;;;;;;;;;5054218;28;20074;-62
2022/07/07 11:20:09;;;;;;;13.40;7.72;;;;;;;;;;5054997;28;20449;-61
2022/07/07 11:22:55;;;;;;;13.82;8.00;;;;;;;;;;5055865;28;20028;-62
2022/07/07 11:25:22;;;;;;;14.00;7.75;;;;;;;;;;5054154;28;20024;-61
2022/07/07 11:27:49;;;;;;;14.25;7.88;;;;;;;;;;5053846;28;20021;-61
2022/07/07 11:30:16;;;;;;;13.35;6.93;;;;;;;;;;5052344;28;20025;-60
2022/07/07 11:32:42;;;;;;;12.98;7.03;;;;;;;;;;5031866;28;20175;-63
2022/07/07 11:35:12;;;;;;;13.77;7.55;;;;;;;;;;5015028;28;20425;-59
2022/07/07 11:37:43;;;;;;;15.88;7.68;;;;;;;;;;5013887;28;20029;-59
2022/07/07 11:40:12;;;;;;;12.57;6.82;;;;;;;;;;5032006;28;20049;-60
2022/07/07 11:42:39;;;;;;;12.52;6.90;;;;;;;;;;5032335;28;20021;-56
2022/07/07 11:45:05;;;;;;;12.80;7.10;;;;;;;;;;5032096;28;20018;-60
2022/07/07 11:47:36;;;;;;;13.38;7.20;;;;;;;;;;5031630;28;20067;-60
2022/07/07 11:50:02;;;;;;;15.38;7.60;;;;;;;;;;5031928;28;20087;-59
2022/07/07 11:52:28;;;;;;;13.35;7.20;;;;;;;;;;5014360;28;20107;-58
2022/07/07 11:54:54;;;;;;;13.70;7.50;;;;;;;;;;5031838;28;20474;-58
2022/07/07 11:57:27;;;;;;;15.43;7.93;;;;;;;;;;5031732;28;20040;-57
2022/07/07 11:59:53;;;;;;;14.55;7.60;;;;;;;;;;5031719;28;20085;-59
2022/07/07 12:02:19;;;;;;;14.70;7.68;;;;;;;;;;5031897;28;20037;-61
2022/07/07 12:04:45;;;;;;;13.77;8.10;;;;;;;;;;5013863;28;20079;-60
2022/07/07 12:07:12;;;;;;;14.20;7.40;;;;;;;;;;5032303;28;20466;-59
2022/07/07 12:09:38;;;;;;;15.30;7.50;;;;;;;;;;5032161;28;20136;-59
2022/07/07 12:12:04;;;;;;;15.43;7.60;;;;;;;;;;5032340;22;20050;-59
2022/07/07 12:14:32;;;;;;;14.50;7.68;;;;;;;;;;5012228;28;20033;-59
2022/07/07 12:16:57;;;;;;;15.68;8.23;;;;;;;;;;5010695;28;20065;-59
2022/07/07 12:19:24;;;;;;;13.75;7.20;;;;;;;;;;5015719;28;20612;-60
2022/07/07 12:21:51;;;;;;;13.40;7.22;;;;;;;;;;5001138;28;20036;-59
2022/07/07 12:24:17;;;;;;;14.63;7.18;;;;;;;;;;5019437;28;20025;-57
2022/07/07 12:26:51;;;;;;;12.48;6.55;;;;;;;;;;5016262;28;20041;-60
2022/07/07 12:29:21;;;;;;;14.40;6.90;;;;;;;;;;5018861;28;20038;-59
2022/07/07 12:31:48;;;;;;;14.55;7.35;;;;;;;;;;5018329;28;20047;-54
2022/07/07 12:34:15;;;;;;;13.00;7.10;;;;;;;;;;5021208;28;20028;-59
2022/07/07 12:36:42;;;;;;;15.02;7.45;;;;;;;;;;5023016;28;20505;-58
2022/07/07 12:39:08;;;;;;;12.82;7.22;;;;;;;;;;5021473;28;20105;-60
2022/07/07 12:41:39;;;;;;;14.55;7.90;;;;;;;;;;5021824;28;20026;-60
2022/07/07 12:44:14;;;;;;;16.23;7.88;;;;;;;;;;5001250;28;20045;-60
2022/07/07 12:46:40;;;;;;;16.05;8.13;;;;;;;;;;5020795;28;20081;-61
2022/07/07 12:49:06;;;;;;;14.60;8.30;;;;;;;;;;5004681;28;20036;-60
2022/07/07 12:51:33;;;;;;;13.50;7.90;;;;;;;;;;5007923;28;20022;-60
2022/07/07 12:53:59;;;;;;;15.48;8.18;;;;;;;;;;5024181;28;20131;-61
2022/07/07 12:56:32;;;;;;;15.80;7.90;;;;;;;;;;5026013;28;20100;-61
2022/07/07 12:58:58;;;;;;;16.27;8.20;;;;;;;;;;5026052;28;20030;-61
2022/07/07 13:01:25;;;;;;;14.57;7.93;;;;;;;;;;5025945;28;20022;-60
2022/07/07 13:03:56;;;;;;;15.95;8.35;;;;;;;;;;5018093;28;20044;-61
2022/07/07 13:06:22;;;;;;;16.20;7.78;;;;;;;;;;5015967;28;20417;-60
2022/07/07 13:08:49;;;;;;;14.75;8.23;;;;;;;;;;5018077;28;20072;-59
2022/07/07 13:11:16;;;;;;;14.48;8.30;;;;;;;;;;5029781;28;20029;-58
2022/07/07 13:13:42;;;;;;;14.80;8.30;;;;;;;;;;5018220;28;20022;-59
2022/07/07 13:16:08;;;;;;;14.13;7.78;;;;;;;;;;5017283;28;20030;-62
2022/07/07 13:18:35;;;;;;;14.43;7.65;;;;;;;;;;5035110;28;20045;-61
2022/07/07 13:21:02;;;;;;;15.35;8.18;;;;;;;;;;5017688;28;20033;-61
2022/07/07 13:23:28;;;;;;;14.45;8.35;;;;;;;;;;5035069;28;20048;-60
2022/07/07 13:25:55;;;;;;;15.50;8.63;;;;;;;;;;5023019;28;20061;-61
2022/07/07 13:28:22;;;;;;;14.20;8.10;;;;;;;;;;4997205;28;20474;-60
2022/07/07 13:30:48;;;;;;;16.48;8.18;;;;;;;;;;5015382;28;20395;-59
2022/07/07 13:33:14;;;;;;;14.38;8.55;;;;;;;;;;5015164;28;20466;-60
2022/07/07 13:35:40;;;;;;;14.55;8.35;;;;;;;;;;4664945;28;10000539;-59
2022/07/07 13:38:06;;;;;;;15.70;8.05;;;;;;;;;;5008384;28;20430;-59
2022/07/07 13:40:33;;;;;;;15.27;8.45;;;;;;;;;;4994477;28;20196;-62
2022/07/07 13:42:59;;;;;;;14.65;8.50;;;;;;;;;;4999976;28;20568;-61
2022/07/07 13:45:25;;;;;;;15.38;8.35;;;;;;;;;;5008403;28;20382;-62
2022/07/07 13:47:51;;;;;;;15.80;8.02;;;;;;;;;;5011527;28;20070;-63
2022/07/07 13:50:17;;;;;;;16.05;8.50;;;;;;;;;;5011839;28;20122;-61
2022/07/07 13:52:43;;;;;;;14.60;8.20;;;;;;;;;;5005826;28;20023;-61
2022/07/07 13:55:09;;;;;;;15.73;7.97;;;;;;;;;;4974769;28;20051;-59
2022/07/07 13:57:35;;;;;;;17.10;8.65;;;;;;;;;;4985712;28;20371;-61
2022/07/07 14:00:01;;;;;;;14.93;7.70;;;;;;;;;;5025554;28;20114;-61
2022/07/07 14:02:27;;;;;;;15.98;7.90;;;;;;;;;;5031308;28;20033;-59
2022/07/07 14:04:54;;;;;;;16.05;9.93;;;;;;;;;;5031689;28;20409;-61
2022/07/07 14:07:21;;;;;;;15.90;9.85;;;;;;;;;;5013613;28;20508;-60
2022/07/07 14:09:47;;;;;;;18.23;10.45;;;;;;;;;;5007286;28;20034;-62
2022/07/07 14:12:13;;;;;;;17.23;10.05;;;;;;;;;;4975384;28;20501;-60
2022/07/07 14:14:40;;;;;;;17.08;9.68;;;;;;;;;;4994397;28;20055;-60
2022/07/07 14:17:06;;;;;;;16.48;9.70;;;;;;;;;;5007047;28;20046;-62
2022/07/07 14:19:32;;;;;;;17.88;9.77;;;;;;;;;;5014746;28;20029;-66
2022/07/07 14:21:58;;;;;;;18.13;9.10;;;;;;;;;;5014272;28;20126;-61
2022/07/07 14:24:25;;;;;;;19.00;9.10;;;;;;;;;;5014650;28;20033;-61